Time;durP1;ratioP1;P1;durP2;ratioP2;P2;SDS_P1;SDS_P2;PMS_P1;PMS_P2;Temp;Humidity;BMP_temperature;BMP_pressure;BME280_temperature;BME280_humidity;BME280_pressure;Samples;Min_cycle;Max_cycle;Signal;HPM_P1;HPM_P2
2023/08/21 00:00:09;;;;;;;;;;;;;;;-145.06;100.00;60892.56;4882541;28;19916;-92
2023/08/21 00:02:49;;;;;;;;;;;;;;;-145.06;100.00;60892.56;4891410;28;20361;-91
2023/08/21 00:05:28;;;;;;;;;;;;;;;-145.06;100.00;60892.56;4891302;28;19916;-91
2023/08/21 00:08:09;;;;;;;;;;;;;;;-145.06;100.00;60892.56;4887357;28;19916;-92
2023/08/21 00:10:48;;;;;;;;;;;;;;;-145.06;100.00;60892.56;4887041;28;19920;-92
2023/08/21 00:13:27;;;;;;;;;;;;;;;-145.06;100.00;60892.56;4877535;28;19924;-91
2023/08/21 00:16:06;;;;;;;;;;;;;;;-145.06;100.00;60892.56;4887225;28;20007;-92
2023/08/21 00:18:45;;;;;;;;;;;;;;;-145.06;100.00;60892.56;4879238;28;19917;-91
2023/08/21 00:21:25;;;;;;;;;;;;;;;-145.06;100.00;60892.56;4888402;28;19913;-91
2023/08/21 00:24:04;;;;;;;;;;;;;;;-145.06;100.00;60892.56;4890746;28;20014;-91
2023/08/21 00:26:43;;;;;;;;;;;;;;;-145.06;100.00;60892.56;4890715;28;19952;-91
2023/08/21 00:29:23;;;;;;;;;;;;;;;-145.06;100.00;60892.56;4890256;28;19912;-92
2023/08/21 00:32:02;;;;;;;;;;;;;;;-145.06;100.00;60892.56;4880302;28;19921;-91
2023/08/21 00:34:41;;;;;;;;;;;;;;;-145.06;100.00;60892.56;4890547;28;19916;-91
2023/08/21 00:37:21;;;;;;;;;;;;;;;-145.06;100.00;60892.56;4882912;28;19912;-90
2023/08/21 00:40:00;;;;;;;;;;;;;;;-145.06;100.00;60892.56;4888914;28;19916;-90
2023/08/21 00:42:39;;;;;;;;;;;;;;;-145.06;100.00;60892.56;4890433;28;19912;-91
2023/08/21 00:45:18;;;;;;;;;;;;;;;-145.06;100.00;60892.56;4891225;28;19916;-91
2023/08/21 00:47:57;;;;;;;;;;;;;;;-145.06;100.00;60892.56;4890894;28;19912;-91
2023/08/21 00:50:37;;;;;;;;;;;;;;;-145.06;100.00;60892.56;4892673;28;19916;-91
2023/08/21 00:53:17;;;;;;;;;;;;;;;-145.06;100.00;60892.56;4886631;28;20244;-92
2023/08/21 00:55:56;;;;;;;;;;;;;;;-145.06;100.00;60892.56;4877542;28;19917;-92
2023/08/21 00:58:37;;;;;;;;;;;;;;;-145.06;100.00;60892.56;4871120;28;19917;-92
2023/08/21 01:01:17;;;;;;;;;;;;;;;-145.06;100.00;60892.56;4886387;28;19912;-93
2023/08/21 01:03:57;;;;;;;;;;;;;;;-145.06;100.00;60892.56;4890577;28;19984;-93
2023/08/21 01:06:38;;;;;;;;;;;;;;;-145.06;100.00;60892.56;4883672;28;19913;-93
2023/08/21 01:09:27;;;;;;;;;;;;;;;-145.06;100.00;60892.56;4888532;28;20023;-92
2023/08/21 01:12:13;;;;;;;;;;;;;;;-145.06;100.00;60892.56;4890224;28;19921;-91
2023/08/21 01:14:57;;;;;;;;;;;;;;;-145.06;100.00;60892.56;4890375;28;19913;-91
2023/08/21 01:17:37;;;;;;;;;;;;;;;-145.06;100.00;60892.56;4891153;28;19917;-93
2023/08/21 01:20:16;;;;;;;;;;;;;;;-145.06;100.00;60892.56;4890055;28;19916;-92
2023/08/21 01:22:55;;;;;;;;;;;;;;;-145.06;100.00;60892.56;4890345;28;19912;-90
2023/08/21 01:25:35;;;;;;;;;;;;;;;-145.06;100.00;60892.56;4890049;28;20494;-91
2023/08/21 01:28:15;;;;;;;;;;;;;;;-145.06;100.00;60892.56;4870407;28;19968;-91
2023/08/21 01:31:03;;;;;;;;;;;;;;;-145.06;100.00;60892.56;4870843;28;19921;-92
2023/08/21 01:33:45;;;;;;;;;;;;;;;-145.06;100.00;60892.56;4887985;28;20274;-93
2023/08/21 01:36:25;;;;;;;;;;;;;;;-145.06;100.00;60892.56;4889956;28;20262;-91
2023/08/21 01:39:05;;;;;;;;;;;;;;;-145.06;100.00;60892.56;4889704;28;19912;-90
2023/08/21 01:41:46;;;;;;;;;;;;;;;-145.06;100.00;60892.56;4871006;28;19980;-92
2023/08/21 01:44:26;;;;;;;;;;;;;;;-145.06;100.00;60892.56;4886503;28;19912;-91
2023/08/21 01:47:05;;;;;;;;;;;;;;;-145.06;100.00;60892.56;4888136;28;20015;-93
2023/08/21 01:49:44;;;;;;;;;;;;;;;-145.06;100.00;60892.56;4886022;28;19955;-91
2023/08/21 01:52:24;;;;;;;;;;;;;;;-145.06;100.00;60892.56;4900096;28;19917;-91
2023/08/21 01:55:04;;;;;;;;;;;;;;;-145.06;100.00;60892.56;4884049;28;19998;-93
2023/08/21 01:57:44;;;;;;;;;;;;;;;-145.06;100.00;60892.56;4885358;28;19916;-93
2023/08/21 02:00:22;;;;;;;;;;;;;;;-145.06;100.00;60892.56;4889421;28;19912;-94
2023/08/21 02:03:01;;;;;;;;;;;;;;;-145.06;100.00;60892.56;4889082;28;20014;-92
2023/08/21 02:05:40;;;;;;;;;;;;;;;-145.06;100.00;60892.56;4899001;28;19916;-92
2023/08/21 02:08:19;;;;;;;;;;;;;;;-145.06;100.00;60892.56;4888167;28;20366;-93
2023/08/21 02:10:58;;;;;;;;;;;;;;;-145.06;100.00;60892.56;4888915;28;19980;-92
2023/08/21 02:13:37;;;;;;;;;;;;;;;-145.06;100.00;60892.56;4889073;28;20354;-92
2023/08/21 02:16:16;;;;;;;;;;;;;;;-145.06;100.00;60892.56;4884527;28;19916;-91
2023/08/21 02:18:57;;;;;;;;;;;;;;;-145.06;100.00;60892.56;4887352;28;19912;-92
2023/08/21 02:21:36;;;;;;;;;;;;;;;-145.06;100.00;60892.56;4885945;28;20350;-92
2023/08/21 02:24:15;;;;;;;;;;;;;;;-145.06;100.00;60892.56;4888177;28;19912;-94
2023/08/21 02:26:55;;;;;;;;;;;;;;;-145.06;100.00;60892.56;4887140;28;20381;-92
2023/08/21 02:29:34;;;;;;;;;;;;;;;-145.06;100.00;60892.56;4893209;28;19917;-93
2023/08/21 02:32:13;;;;;;;;;;;;;;;-145.06;100.00;60892.56;4890155;28;19972;-92
2023/08/21 02:34:54;;;;;;;;;;;;;;;-145.06;100.00;60892.56;4882379;28;19920;-92
2023/08/21 02:37:33;;;;;;;;;;;;;;;-145.06;100.00;60892.56;4897147;28;19916;-92
2023/08/21 02:40:12;;;;;;;;;;;;;;;-145.06;100.00;60892.56;4887920;28;19921;-92
2023/08/21 02:42:52;;;;;;;;;;;;;;;-145.06;100.00;60892.56;4888653;28;19916;-92
2023/08/21 02:45:31;;;;;;;;;;;;;;;-145.06;100.00;60892.56;4889303;28;20350;-93
2023/08/21 02:48:11;;;;;;;;;;;;;;;-145.06;100.00;60892.56;4890030;28;20113;-93
2023/08/21 02:50:50;;;;;;;;;;;;;;;-145.06;100.00;60892.56;4888377;28;19917;-91
2023/08/21 02:53:28;;;;;;;;;;;;;;;-145.06;100.00;60892.56;4888712;28;19917;-91
2023/08/21 02:56:08;;;;;;;;;;;;;;;21.06;100.00;60892.56;4888919;28;19913;-92
2023/08/21 02:58:47;;;;;;;;;;;;;;;21.06;100.00;60892.56;4888501;28;19991;-92
2023/08/21 03:01:26;;;;;;;;;;;;;;;21.05;100.00;60892.56;4888085;28;19948;-93
2023/08/21 03:04:07;;;;;;;;;;;;;;;21.04;100.00;60892.56;4889049;28;19913;-92
2023/08/21 03:06:46;;;;;;;;;;;;;;;21.03;100.00;60892.56;4884710;28;19912;-93
2023/08/21 03:09:25;;;;;;;;;;;;;;;21.02;100.00;60892.56;4889011;28;19916;-91
2023/08/21 03:12:04;;;;;;;;;;;;;;;-145.06;100.00;60892.56;4888287;28;19917;-94
2023/08/21 03:14:44;;;;;;;;;;;;;;;-145.06;100.00;60892.56;4888009;28;20433;-93
2023/08/21 03:17:24;;;;;;;;;;;;;;;-145.06;100.00;60892.56;4888809;28;20355;-92
2023/08/21 03:20:06;;;;;;;;;;;;;;;-145.06;100.00;60892.56;4887916;28;19912;-91
2023/08/21 03:22:45;;;;;;;;;;;;;;;-145.06;100.00;60892.56;4888490;28;19913;-93
2023/08/21 03:25:24;;;;;;;;;;;;;;;-145.06;100.00;60892.56;4888609;28;19913;-94
2023/08/21 03:28:03;;;;;;;;;;;;;;;-145.06;100.00;60892.56;4888210;28;19999;-92
2023/08/21 03:30:43;;;;;;;;;;;;;;;-145.06;100.00;60892.56;4887510;28;19917;-93
2023/08/21 03:33:22;;;;;;;;;;;;;;;-145.06;100.00;60892.56;4887640;28;20272;-91
2023/08/21 03:36:01;;;;;;;;;;;;;;;-145.06;100.00;60892.56;4880089;28;20271;-93
2023/08/21 03:38:41;;;;;;;;;;;;;;;-145.06;100.00;60892.56;4885092;28;20357;-93
2023/08/21 03:41:23;;;;;;;;;;;;;;;-145.06;100.00;60892.56;4887422;28;23091;-91
2023/08/21 03:44:03;;;;;;;;;;;;;;;-145.06;100.00;60892.56;4885217;28;19948;-92
2023/08/21 03:46:43;;;;;;;;;;;;;;;-145.06;100.00;60892.56;4900446;28;19912;-92
2023/08/21 03:49:22;;;;;;;;;;;;;;;-145.06;100.00;60892.56;4887825;28;20121;-92
2023/08/21 03:52:01;;;;;;;;;;;;;;;-145.06;100.00;60892.56;4893094;28;19912;-93
2023/08/21 03:54:41;;;;;;;;;;;;;;;-145.06;100.00;60892.56;4885927;28;20243;-92
2023/08/21 03:57:20;;;;;;;;;;;;;;;-145.06;100.00;60892.56;4887764;28;19916;-92
2023/08/21 04:00:01;;;;;;;;;;;;;;;-145.06;100.00;60892.56;4885960;28;20358;-91
2023/08/21 04:02:42;;;;;;;;;;;;;;;-145.06;100.00;60892.56;4885591;28;19916;-90
2023/08/21 04:05:21;;;;;;;;;;;;;;;-145.06;100.00;60892.56;4886419;28;19924;-91
2023/08/21 04:08:01;;;;;;;;;;;;;;;-145.06;100.00;60892.56;4888981;28;19916;-92
2023/08/21 04:10:41;;;;;;;;;;;;;;;-145.06;100.00;60892.56;4882203;28;19917;-92
2023/08/21 04:13:21;;;;;;;;;;;;;;;-145.06;100.00;60892.56;4881457;28;19921;-91
2023/08/21 04:16:00;;;;;;;;;;;;;;;-145.06;100.00;60892.56;4888077;28;20015;-90
2023/08/21 04:18:39;;;;;;;;;;;;;;;-145.06;100.00;60892.56;4885017;28;19912;-91
2023/08/21 04:21:18;;;;;;;;;;;;;;;-145.06;100.00;60892.56;4882797;28;20310;-92
2023/08/21 04:23:58;;;;;;;;;;;;;;;-145.06;100.00;60892.56;4884385;28;19916;-91
2023/08/21 04:26:37;;;;;;;;;;;;;;;-145.06;100.00;60892.56;4894740;28;20254;-91
2023/08/21 04:29:16;;;;;;;;;;;;;;;-145.06;100.00;60892.56;4899106;28;19925;-92
2023/08/21 04:31:56;;;;;;;;;;;;;;;-145.06;100.00;60892.56;4876827;28;19952;-93
2023/08/21 04:34:36;;;;;;;;;;;;;;;-145.06;100.00;60892.56;4886555;28;20354;-91
2023/08/21 04:37:15;;;;;;;;;;;;;;;-145.06;100.00;60892.56;4887606;28;19913;-91
2023/08/21 04:39:54;;;;;;;;;;;;;;;-145.06;100.00;60892.56;4890999;28;19921;-92
2023/08/21 04:42:34;;;;;;;;;;;;;;;-145.06;100.00;60892.56;4893329;28;20031;-93
2023/08/21 04:45:14;;;;;;;;;;;;;;;-145.06;100.00;60892.56;4890713;28;20213;-92
2023/08/21 04:47:56;;;;;;;;;;;;;;;-145.06;100.00;60892.56;4894110;28;19912;-92
2023/08/21 04:50:35;;;;;;;;;;;;;;;-145.06;100.00;60892.56;4893328;28;19916;-94
2023/08/21 04:53:33;;;;;;;;;;;;;;;;;;;;;
2023/08/21 04:56:45;;;;;;;;;;;;;;;;;;;;;
2023/08/21 05:03:23;;;;;;;;;;;;;;;;;;;;;
2023/08/21 05:06:03;;;;;;;;;;;;;;;-145.06;100.00;60892.56;4905205;28;19912;-92
2023/08/21 05:08:42;;;;;;;;;;;;;;;-145.06;100.00;60892.56;4890658;28;19920;-93
2023/08/21 05:11:39;;;;;;;;;;;;;;;-145.06;100.00;60892.56;4890699;28;19913;-93
2023/08/21 05:14:36;;;;;;;;;;;;;;;;;;;;;
2023/08/21 05:23:47;;;;;;;;;;;;;;;-145.06;100.00;60892.56;4909072;28;19912;-94
2023/08/21 05:26:32;;;;;;;;;;;;;;;-145.06;100.00;60892.56;4893951;28;19916;-93
2023/08/21 05:29:15;;;;;;;;;;;;;;;-145.06;100.00;60892.56;4892823;28;19916;-93
2023/08/21 05:32:09;;;;;;;;;;;;;;;;;;;;;
2023/08/21 05:34:58;;;;;;;;;;;;;;;-145.06;100.00;60892.56;4914645;28;19917;-94
2023/08/21 05:37:53;;;;;;;;;;;;;;;-145.06;100.00;60892.56;4893633;28;19916;-93
2023/08/21 05:41:02;;;;;;;;;;;;;;;-145.06;100.00;60892.56;4893810;28;19956;-93
2023/08/21 05:47:18;;;;;;;;;;;;;;;-145.06;100.00;60892.56;4869494;28;19912;-94
2023/08/21 05:50:14;;;;;;;;;;;;;;;;;;;;;
2023/08/21 05:59:51;;;;;;;;;;;;;;;-145.06;100.00;60892.56;4902986;28;19920;-93
2023/08/21 06:02:32;;;;;;;;;;;;;;;-145.06;100.00;60892.56;4890750;28;20366;-93
2023/08/21 06:05:33;;;;;;;;;;;;;;;-145.06;100.00;60892.56;4891563;28;19912;-94
2023/08/21 06:08:22;;;;;;;;;;;;;;;-145.06;100.00;60892.56;4890999;28;19951;-94
2023/08/21 06:11:23;;;;;;;;;;;;;;;-145.06;100.00;60892.56;4892129;28;19983;-93
2023/08/21 06:14:15;;;;;;;;;;;;;;;-145.06;100.00;60892.56;4892510;28;20121;-93
2023/08/21 06:17:06;;;;;;;;;;;;;;;-145.06;100.00;60892.56;4893321;28;19916;-93
2023/08/21 06:19:50;;;;;;;;;;;;;;;-145.06;100.00;60892.56;4894116;28;19912;-93
2023/08/21 06:22:30;;;;;;;;;;;;;;;-145.06;100.00;60892.56;4893654;28;20251;-94
2023/08/21 06:25:23;;;;;;;;;;;;;;;-145.06;100.00;60892.56;4894134;28;19912;-93
2023/08/21 06:31:31;;;;;;;;;;;;;;;;;;;;;
2023/08/21 06:34:36;;;;;;;;;;;;;;;-145.06;100.00;60892.56;4934069;28;19916;-94
2023/08/21 06:37:30;;;;;;;;;;;;;;;-145.06;100.00;60892.56;4912726;28;19912;-94
2023/08/21 06:40:12;;;;;;;;;;;;;;;-145.06;100.00;60892.56;4912879;28;20002;-93
2023/08/21 06:43:29;;;;;;;;;;;;;;;-145.06;100.00;60892.56;4898246;28;19913;-94
2023/08/21 06:46:36;;;;;;;;;;;;;;;-145.06;100.00;60892.56;4893570;28;19912;-95
2023/08/21 07:03:10;;;;;;;;;;;;;;;;;;;;;
2023/08/21 07:06:09;;;;;;;;;;;;;;;-145.06;100.00;60892.56;4915702;28;19912;-93
2023/08/21 07:18:02;;;;;;;;;;;;;;;;;;;;;
2023/08/21 07:24:40;;;;;;;;;;;;;;;-145.06;100.00;60892.56;4885043;28;19912;-93
2023/08/21 07:27:57;;;;;;;;;;;;;;;;;;;;;
2023/08/21 07:30:46;;;;;;;;;;;;;;;-145.06;100.00;60892.56;4905493;28;19916;-94
2023/08/21 07:40:00;;;;;;;;;;;;;;;-145.06;100.00;60892.56;4904329;28;19913;-95
2023/08/21 07:42:48;;;;;;;;;;;;;;;-145.06;100.00;60892.56;4890268;28;19944;-94
2023/08/21 07:45:39;;;;;;;;;;;;;;;-145.06;100.00;60892.56;4890909;28;19912;-94
2023/08/21 07:48:56;;;;;;;;;;;;;;;-145.06;100.00;60892.56;4890057;28;19976;-93
2023/08/21 07:52:15;;;;;;;;;;;;;;;-145.06;100.00;60892.56;4890769;28;20003;-94
2023/08/21 08:02:04;;;;;;;;;;;;;;;;;;;;;
2023/08/21 08:05:19;;;;;;;;;;;;;;;;;;;;;
2023/08/21 08:08:20;;;;;;;;;;;;;;;-145.06;100.00;60892.56;4904254;28;19912;-93
2023/08/21 08:11:08;;;;;;;;;;;;;;;-145.06;100.00;60892.56;4891281;28;19917;-94
2023/08/21 08:17:24;;;;;;;;;;;;;;;-145.06;100.00;60892.56;4905793;28;19916;-94
2023/08/21 08:20:33;;;;;;;;;;;;;;;-145.06;100.00;60892.56;4894683;28;19916;-94
2023/08/21 08:23:38;;;;;;;;;;;;;;;;;;;;;
2023/08/21 08:26:27;;;;;;;;;;;;;;;;;;;;;
2023/08/21 08:29:06;;;;;;;;;;;;;;;-145.06;100.00;60892.56;4909041;28;19916;-94
2023/08/21 08:35:20;;;;;;;;;;;;;;;-145.06;100.00;60892.56;4905661;28;19913;-94
2023/08/21 08:37:59;;;;;;;;;;;;;;;-145.06;100.00;60892.56;4891973;28;20023;-93
2023/08/21 08:40:52;;;;;;;;;;;;;;;-145.06;100.00;60892.56;4891953;28;19912;-94
2023/08/21 08:46:43;;;;;;;;;;;;;;;-145.06;100.00;60892.56;4904232;28;19912;-95
2023/08/21 08:49:30;;;;;;;;;;;;;;;-145.06;100.00;60892.56;4899148;28;19916;-93
2023/08/21 08:52:19;;;;;;;;;;;;;;;-145.06;100.00;60892.56;4910125;28;19912;-95
2023/08/21 08:55:06;;;;;;;;;;;;;;;-145.06;100.00;60892.56;4910958;28;19912;-94
2023/08/21 08:57:48;;;;;;;;;;;;;;;-145.06;100.00;60892.56;4912210;28;19912;-94
2023/08/21 09:04:00;;;;;;;;;;;;;;;;;;;;;
2023/08/21 09:06:52;;;;;;;;;;;;;;;;;;;;;
2023/08/21 09:10:07;;;;;;;;;;;;;;;;;;;;;
2023/08/21 09:13:13;;;;;;;;;;;;;;;-145.06;100.00;60892.56;4934136;28;19912;-95
2023/08/21 09:15:58;;;;;;;;;;;;;;;-145.06;100.00;60892.56;4834897;28;19917;-95
2023/08/21 09:22:07;;;;;;;;;;;;;;;-145.06;100.00;60892.56;4933657;28;19912;-94
2023/08/21 09:25:25;;;;;;;;;;;;;;;;;;;;;
2023/08/21 09:28:10;;;;;;;;;;;;;;;-145.06;100.00;60892.56;4912958;28;19943;-95
2023/08/21 09:31:07;;;;;;;;;;;;;;;-145.06;100.00;60892.56;4892833;28;19912;-94
2023/08/21 09:34:37;;;;;;;;;;;;;;;;;;;;;
2023/08/21 09:37:23;;;;;;;;;;;;;;;;;;;;;
2023/08/21 09:40:25;;;;;;;;;;;;;;;-145.06;100.00;60892.56;4914052;28;19912;-94
2023/08/21 09:47:09;;;;;;;;;;;;;;;-145.06;100.00;60892.56;4812724;28;19914;-94
2023/08/21 09:50:12;;;;;;;;;;;;;;;24.80;100.00;60892.56;4883652;28;19916;-95
2023/08/21 09:52:53;;;;;;;;;;;;;;;24.87;100.00;60892.56;4891788;28;19913;-94
2023/08/21 09:55:46;;;;;;;;;;;;;;;;;;;;;
2023/08/21 09:58:41;;;;;;;;;;;;;;;-145.06;100.00;60892.56;4915193;28;19913;-93
2023/08/21 10:01:29;;;;;;;;;;;;;;;-145.06;100.00;60892.56;4892287;28;20391;-94
2023/08/21 10:04:17;;;;;;;;;;;;;;;-145.06;100.00;60892.56;4893998;28;19913;-94
2023/08/21 10:07:24;;;;;;;;;;;;;;;;;;;;;
2023/08/21 10:10:11;;;;;;;;;;;;;;;-145.06;100.00;60892.56;4893783;28;19921;-93
2023/08/21 10:13:15;;;;;;;;;;;;;;;-145.06;100.00;60892.56;4872894;28;19913;-94
2023/08/21 10:16:03;;;;;;;;;;;;;;;-145.06;100.00;60892.56;4872699;28;19913;-93
2023/08/21 10:19:19;;;;;;;;;;;;;;;-145.06;100.00;60892.56;4874254;28;19913;-94
2023/08/21 10:22:11;;;;;;;;;;;;;;;25.69;100.00;60892.56;4874068;28;19913;-94
2023/08/21 10:25:03;;;;;;;;;;;;;;;;;;;;;
2023/08/21 10:28:47;;;;;;;;;;;;;;;-145.06;100.00;60892.56;4894927;28;19912;-94
2023/08/21 11:27:22;;;;;;;;;;;;;;;;;;;;;
2023/08/21 11:33:38;;;;;;;;;;;;;;;-145.06;100.00;60892.56;4728964;29;19915;-92
2023/08/21 11:36:44;;;;;;;;;;;;;;;-145.06;100.00;60892.56;4735438;29;20145;-93
2023/08/21 11:39:30;;;;;;;;;;;;;;;-145.06;100.00;60892.56;4774318;29;19954;-92
2023/08/21 11:42:15;;;;;;;;;;;;;;;-145.06;100.00;60892.56;4772547;28;19915;-93
2023/08/21 11:44:54;;;;;;;;;;;;;;;-145.06;100.00;60892.56;4874390;28;19999;-91
2023/08/21 11:47:58;;;;;;;;;;;;;;;-145.06;100.00;60892.56;4894042;28;19916;-93
2023/08/21 11:50:57;;;;;;;;;;;;;;;;;;;;;
2023/08/21 11:57:29;;;;;;;;;;;;;;;-145.06;100.00;60892.56;4863328;28;19977;-94
2023/08/21 12:00:24;;;;;;;;;;;;;;;;;;;;;
2023/08/21 12:09:53;;;;;;;;;;;;;;;-145.06;100.00;60892.56;4890864;28;19916;-92
2023/08/21 12:16:17;;;;;;;;;;;;;;;-145.06;100.00;60892.56;4852450;28;19949;-95
2023/08/21 12:19:14;;;;;;;;;;;;;;;;;;;;;
2023/08/21 12:21:59;;;;;;;;;;;;;;;-145.06;100.00;60892.56;4912680;28;19916;-93
2023/08/21 12:35:02;;;;;;;;;;;;;;;-145.06;100.00;60892.56;4903802;28;19917;-93
2023/08/21 12:38:28;;;;;;;;;;;;;;;-145.06;100.00;60892.56;4897911;28;19908;-92
2023/08/21 12:41:08;;;;;;;;;;;;;;;-145.06;100.00;60892.56;4912389;28;20298;-92
2023/08/21 12:43:58;;;;;;;;;;;;;;;-145.06;100.00;60892.56;4897290;28;19912;-93
2023/08/21 12:46:58;;;;;;;;;;;;;;;-145.06;100.00;60892.56;4898211;28;19913;-93
2023/08/21 12:56:30;;;;;;;;;;;;;;;-145.06;100.00;60892.56;4831814;28;20421;-93
2023/08/21 13:09:47;;;;;;;;;;;;;;;-145.06;100.00;60892.56;4867967;28;19917;-93
2023/08/21 13:12:37;;;;;;;;;;;;;;;-145.06;100.00;60892.56;4879310;28;19913;-92
2023/08/21 13:15:46;;;;;;;;;;;;;;;;;;;;;
2023/08/21 13:19:01;;;;;;;;;;;;;;;;;;;;;
2023/08/21 13:25:38;;;;;;;;;;;;;;;;;;;;;
2023/08/21 13:28:25;;;;;;;;;;;;;;;-145.06;100.00;60892.56;4893747;28;19940;-92
2023/08/21 13:31:10;;;;;;;;;;;;;;;-145.06;100.00;60892.56;4897709;28;19912;-92
2023/08/21 13:33:50;;;;;;;;;;;;;;;-145.06;100.00;60892.56;4904463;28;20015;-92
2023/08/21 13:36:33;;;;;;;;;;;;;;;-145.06;100.00;60892.56;4894162;28;19912;-91
2023/08/21 13:39:26;;;;;;;;;;;;;;;-145.06;100.00;60892.56;4897917;28;19916;-92
2023/08/21 13:42:05;;;;;;;;;;;;;;;-145.06;100.00;60892.56;4903261;28;19916;-91
2023/08/21 13:44:44;;;;;;;;;;;;;;;-145.06;100.00;60892.56;4869065;28;19913;-90
2023/08/21 13:47:24;;;;;;;;;;;;;;;-145.06;100.00;60892.56;4869330;28;19917;-92
2023/08/21 13:50:05;;;;;;;;;;;;;;;-145.06;100.00;60892.56;4882699;28;19920;-91
2023/08/21 13:52:45;;;;;;;;;;;;;;;-145.06;100.00;60892.56;4883352;28;19921;-90
2023/08/21 13:55:25;;;;;;;;;;;;;;;-145.06;100.00;60892.56;4886728;28;19917;-91
2023/08/21 13:58:03;;;;;;;;;;;;;;;-145.06;100.00;60892.56;4880112;28;19921;-91
2023/08/21 14:00:43;;;;;;;;;;;;;;;-145.06;100.00;60892.56;4904055;28;19916;-91
2023/08/21 14:03:24;;;;;;;;;;;;;;;-145.06;100.00;60892.56;4885850;28;19944;-91
2023/08/21 14:06:03;;;;;;;;;;;;;;;-145.06;100.00;60892.56;4878808;28;19924;-89
2023/08/21 14:08:44;;;;;;;;;;;;;;;-145.06;100.00;60892.56;4904362;28;20243;-90
2023/08/21 14:11:24;;;;;;;;;;;;;;;-145.06;100.00;60892.56;4875801;28;19917;-91
2023/08/21 14:14:03;;;;;;;;;;;;;;;-145.06;100.00;60892.56;4865410;28;20011;-89
2023/08/21 14:16:42;;;;;;;;;;;;;;;-145.06;100.00;60892.56;4891027;28;20015;-90
2023/08/21 14:19:21;;;;;;;;;;;;;;;-145.06;100.00;60892.56;4885789;28;19913;-89
2023/08/21 14:22:00;;;;;;;;;;;;;;;-145.06;100.00;60892.56;4904757;28;19920;-91
2023/08/21 14:24:41;;;;;;;;;;;;;;;-145.06;100.00;60892.56;4886913;28;20248;-89
2023/08/21 14:27:20;;;;;;;;;;;;;;;-145.06;100.00;60892.56;4883566;28;19948;-90
2023/08/21 14:29:59;;;;;;;;;;;;;;;-145.06;100.00;60892.56;4891227;28;19920;-90
2023/08/21 14:32:38;;;;;;;;;;;;;;;-145.06;100.00;60892.56;4885472;28;20003;-90
2023/08/21 14:35:17;;;;;;;;;;;;;;;-145.06;100.00;60892.56;4880453;28;19967;-89
2023/08/21 14:37:56;;;;;;;;;;;;;;;-145.06;100.00;60892.56;4886242;28;19917;-90
2023/08/21 14:40:35;;;;;;;;;;;;;;;-145.06;100.00;60892.56;4901093;28;20372;-90
2023/08/21 14:43:14;;;;;;;;;;;;;;;-145.06;100.00;60892.56;4889222;28;20340;-90
2023/08/21 14:45:53;;;;;;;;;;;;;;;-145.06;100.00;60892.56;4887386;28;19921;-91
2023/08/21 14:48:32;;;;;;;;;;;;;;;-145.06;100.00;60892.56;4882419;28;19956;-90
2023/08/21 14:51:11;;;;;;;;;;;;;;;-145.06;100.00;60892.56;4879529;28;19924;-89
2023/08/21 14:53:56;;;;;;;;;;;;;;;-145.06;100.00;60892.56;4886025;28;20086;-94
2023/08/21 14:56:35;;;;;;;;;;;;;;;-145.06;100.00;60892.56;4888507;28;19912;-93
2023/08/21 14:59:14;;;;;;;;;;;;;;;-145.06;100.00;60892.56;4886253;28;20545;-90
2023/08/21 15:01:55;;;;;;;;;;;;;;;-145.06;100.00;60892.56;4883492;28;19951;-92
2023/08/21 15:04:33;;;;;;;;;;;;;;;-145.06;100.00;60892.56;4890216;28;19920;-91
2023/08/21 15:07:47;;;;;;;;;;;;;;;-145.06;100.00;60892.56;4890845;28;20368;-93
2023/08/21 15:15:20;;;;;;;;;;;;;;;-145.06;100.00;60892.56;4865929;28;19929;-90
2023/08/21 15:17:59;;;;;;;;;;;;;;;-145.06;100.00;60892.56;4853297;28;19913;-90
2023/08/21 15:20:38;;;;;;;;;;;;;;;-145.06;100.00;60892.56;4865863;28;20000;-91
2023/08/21 15:23:17;;;;;;;;;;;;;;;-145.06;100.00;60892.56;4849222;28;20365;-92
2023/08/21 15:25:56;;;;;;;;;;;;;;;-145.06;100.00;60892.56;4845288;28;19917;-90
2023/08/21 15:28:35;;;;;;;;;;;;;;;-145.06;100.00;60892.56;4847858;28;19948;-90
2023/08/21 15:31:14;;;;;;;;;;;;;;;-145.06;100.00;60892.56;4859773;28;19913;-90
2023/08/21 15:33:53;;;;;;;;;;;;;;;-145.06;100.00;60892.56;4844182;28;19921;-90
2023/08/21 15:36:32;;;;;;;;;;;;;;;-145.06;100.00;60892.56;4845038;28;20540;-90
2023/08/21 15:39:11;;;;;;;;;;;;;;;-145.06;100.00;60892.56;4845926;28;19921;-89
2023/08/21 15:41:50;;;;;;;;;;;;;;;-145.06;100.00;60892.56;4856694;28;19917;-89
2023/08/21 15:44:29;;;;;;;;;;;;;;;-145.06;100.00;60892.56;4837656;28;20349;-90
2023/08/21 15:47:08;;;;;;;;;;;;;;;-145.06;100.00;60892.56;4838310;28;20164;-89
2023/08/21 15:49:47;;;;;;;;;;;;;;;-145.06;100.00;60892.56;4843452;28;19961;-90
2023/08/21 15:52:26;;;;;;;;;;;;;;;-145.06;100.00;60892.56;4841534;28;20418;-90
2023/08/21 15:55:05;;;;;;;;;;;;;;;-145.06;100.00;60892.56;4847007;28;19960;-90
2023/08/21 15:57:44;;;;;;;;;;;;;;;-145.06;100.00;60892.56;4844372;28;20543;-89
2023/08/21 16:00:23;;;;;;;;;;;;;;;-145.06;100.00;60892.56;4856081;28;20405;-89
2023/08/21 16:03:04;;;;;;;;;;;;;;;-145.06;100.00;60892.56;4857078;28;19968;-89
2023/08/21 16:05:43;;;;;;;;;;;;;;;-145.06;100.00;60892.56;4837255;28;19917;-89
2023/08/21 16:08:22;;;;;;;;;;;;;;;-145.06;100.00;60892.56;4843695;28;19917;-91
2023/08/21 16:11:01;;;;;;;;;;;;;;;-145.06;100.00;60892.56;4857171;28;19921;-89
2023/08/21 16:13:39;;;;;;;;;;;;;;;-145.06;100.00;60892.56;4849746;28;20362;-90
2023/08/21 16:16:18;;;;;;;;;;;;;;;-145.06;100.00;60892.56;4837164;28;19925;-89
2023/08/21 16:18:58;;;;;;;;;;;;;;;-145.06;100.00;60892.56;4844848;28;19917;-88
2023/08/21 16:21:37;;;;;;;;;;;;;;;-145.06;100.00;60892.56;4830301;28;20225;-88
2023/08/21 16:24:16;;;;;;;;;;;;;;;-145.06;100.00;60892.56;4836648;28;19921;-89
2023/08/21 16:26:55;;;;;;;;;;;;;;;-145.06;100.00;60892.56;4831560;28;19917;-89
2023/08/21 16:29:34;;;;;;;;;;;;;;;-145.06;100.00;60892.56;4836471;28;20739;-89
2023/08/21 16:32:13;;;;;;;;;;;;;;;-145.06;100.00;60892.56;4836186;28;19921;-89
2023/08/21 16:34:52;;;;;;;;;;;;;;;-145.06;100.00;60892.56;4846862;28;20642;-89
2023/08/21 16:37:30;;;;;;;;;;;;;;;-145.06;100.00;60892.56;4854707;28;19917;-89
2023/08/21 16:40:11;;;;;;;;;;;;;;;-145.06;100.00;60892.56;4839613;28;20522;-93
2023/08/21 16:42:51;;;;;;;;;;;;;;;-145.06;100.00;60892.56;4862709;28;19996;-90
2023/08/21 16:45:29;;;;;;;;;;;;;;;-145.06;100.00;60892.56;4845007;28;19917;-90
2023/08/21 16:48:08;;;;;;;;;;;;;;;-145.06;100.00;60892.56;4846679;28;19925;-90
2023/08/21 16:50:48;;;;;;;;;;;;;;;-145.06;100.00;60892.56;4848961;28;20266;-89
2023/08/21 16:53:27;;;;;;;;;;;;;;;-145.06;100.00;60892.56;4841723;28;19917;-89
2023/08/21 16:56:06;;;;;;;;;;;;;;;-145.06;100.00;60892.56;4844603;28;19917;-89
2023/08/21 16:58:45;;;;;;;;;;;;;;;-145.06;100.00;60892.56;4846487;28;19921;-90
2023/08/21 17:01:27;;;;;;;;;;;;;;;-145.06;100.00;60892.56;4859107;28;19913;-93
2023/08/21 17:04:06;;;;;;;;;;;;;;;-145.06;100.00;60892.56;4849678;28;20374;-95
2023/08/21 17:06:47;;;;;;;;;;;;;;;-145.06;100.00;60892.56;4849734;28;19917;-93
2023/08/21 17:09:26;;;;;;;;;;;;;;;-145.06;100.00;60892.56;4853798;28;19999;-92
2023/08/21 17:12:05;;;;;;;;;;;;;;;-145.06;100.00;60892.56;4850712;28;19945;-91
2023/08/21 17:14:44;;;;;;;;;;;;;;;-145.06;100.00;60892.56;4833621;28;19921;-90
2023/08/21 17:17:24;;;;;;;;;;;;;;;-145.06;100.00;60892.56;4835875;28;19917;-91
2023/08/21 17:20:04;;;;;;;;;;;;;;;-145.06;100.00;60892.56;4844106;28;20255;-91
2023/08/21 17:22:42;;;;;;;;;;;;;;;-145.06;100.00;60892.56;4842311;28;19917;-91
2023/08/21 17:25:22;;;;;;;;;;;;;;;-145.06;100.00;60892.56;4842408;28;19917;-90
2023/08/21 17:28:02;;;;;;;;;;;;;;;-145.06;100.00;60892.56;4843900;28;20513;-92
2023/08/21 17:30:41;;;;;;;;;;;;;;;-145.06;100.00;60892.56;4838100;28;20525;-91
2023/08/21 17:33:20;;;;;;;;;;;;;;;-145.06;100.00;60892.56;4866587;28;19964;-90
2023/08/21 17:35:59;;;;;;;;;;;;;;;-145.06;100.00;60892.56;4845494;28;19913;-91
2023/08/21 17:38:38;;;;;;;;;;;;;;;-145.06;100.00;60892.56;4846579;28;19921;-92